Time;durP1;ratioP1;P1;durP2;ratioP2;P2;SDS_P1;SDS_P2;PMS_P1;PMS_P2;Temp;Humidity;BMP_temperature;BMP_pressure;BME280_temperature;BME280_humidity;BME280_pressure;Samples;Min_cycle;Max_cycle;Signal;HPM_P1;HPM_P2
2021/09/28 00:00:11;;;;;;;13.38;5.47;;;;;;;10.45;100.00;102023.94;2616631;36;20085;-78
2021/09/28 00:02:39;;;;;;;19.20;5.88;;;;;;;10.51;100.00;102032.44;2616451;36;20105;-76
2021/09/28 00:05:09;;;;;;;13.88;5.82;;;;;;;10.49;100.00;102028.13;2616293;36;20117;-76
2021/09/28 00:07:40;;;;;;;16.67;6.20;;;;;;;10.48;100.00;102029.97;2615760;36;20586;-78
2021/09/28 00:10:09;;;;;;;12.65;5.18;;;;;;;10.48;100.00;102029.09;2616247;36;20034;-78
2021/09/28 00:12:37;;;;;;;13.10;5.45;;;;;;;10.44;100.00;102027.63;2616476;36;20073;-78
2021/09/28 00:15:07;;;;;;;9.95;5.53;;;;;;;10.39;100.00;102027.91;2616406;36;20031;-76
2021/09/28 00:17:35;;;;;;;15.43;6.78;;;;;;;10.39;100.00;102030.59;2615190;36;20081;-76
2021/09/28 00:20:04;;;;;;;12.10;5.95;;;;;;;10.36;100.00;102032.66;2616124;36;20080;-78
2021/09/28 00:22:32;;;;;;;14.17;6.40;;;;;;;10.36;100.00;102038.03;2616119;36;20214;-76
2021/09/28 00:25:03;;;;;;;16.10;5.97;;;;;;;10.36;100.00;102044.25;2615504;36;20077;-76
2021/09/28 00:27:32;;;;;;;15.27;5.90;;;;;;;10.33;100.00;102047.13;2616669;36;20029;-76
2021/09/28 00:30:00;;;;;;;14.90;5.95;;;;;;;10.36;100.00;102052.34;2616317;36;20575;-77
2021/09/28 00:32:29;;;;;;;15.52;6.25;;;;;;;10.33;100.00;102049.81;2616062;36;20551;-76
2021/09/28 00:37:43;;;;;;;15.77;5.97;;;;;;;10.30;100.00;102050.03;2615955;36;20061;-77
2021/09/28 00:40:14;;;;;;;15.77;6.60;;;;;;;10.27;100.00;102058.31;2615576;36;20050;-77
2021/09/28 00:42:43;;;;;;;9.55;5.72;;;;;;;10.29;100.00;102051.00;2616321;36;20022;-76
2021/09/28 00:45:11;;;;;;;12.90;6.05;;;;;;;10.29;100.00;102051.00;2616108;36;20042;-78
2021/09/28 00:47:40;;;;;;;10.68;5.50;;;;;;;10.31;100.00;102062.53;2615660;36;20042;-77
2021/09/28 00:50:09;;;;;;;15.98;5.95;;;;;;;10.31;100.00;102062.53;2616061;36;20081;-76
2021/09/28 00:52:37;;;;;;;13.95;6.05;;;;;;;10.40;100.00;102056.56;2615918;36;20034;-77
2021/09/28 00:55:06;;;;;;;11.82;6.20;;;;;;;10.40;100.00;102061.94;2616166;36;20073;-77
2021/09/28 00:57:38;;;;;;;23.08;6.35;;;;;;;10.37;100.00;102067.53;2616361;36;20034;-79
2021/09/28 01:00:08;;;;;;;16.80;6.00;;;;;;;10.44;100.00;102060.75;2616279;31;20030;-78
2021/09/28 01:02:36;;;;;;;24.17;6.22;;;;;;;10.44;100.00;102063.44;2616315;36;20069;-77
2021/09/28 01:05:05;;;;;;;22.23;6.00;;;;;;;10.47;100.00;102065.94;2617371;36;20551;-75
2021/09/28 01:07:33;;;;;;;16.27;6.40;;;;;;;10.50;100.00;102065.72;2616341;36;20074;-76
2021/09/28 01:10:01;;;;;;;16.60;6.13;;;;;;;10.53;100.00;102067.34;2616663;36;20069;-75
2021/09/28 01:12:30;;;;;;;16.45;6.28;;;;;;;10.57;100.00;102068.84;2613804;36;20216;-75
2021/09/28 01:15:01;;;;;;;16.50;5.75;;;;;;;10.56;100.00;102061.75;2599344;36;20903;-78
2021/09/28 01:17:29;;;;;;;16.20;5.78;;;;;;;10.59;100.00;102066.91;2604886;36;20548;-76
2021/09/28 01:19:57;;;;;;;16.50;6.53;;;;;;;10.59;100.00;102068.75;2605602;36;20026;-76
2021/09/28 01:22:28;;;;;;;19.73;6.20;;;;;;;10.58;100.00;102067.00;2607265;36;20065;-76
2021/09/28 01:24:56;;;;;;;11.30;5.82;;;;;;;10.61;100.00;102075.72;2609592;36;20069;-76
2021/09/28 01:27:25;;;;;;;13.15;5.50;;;;;;;10.59;100.00;102072.28;2601235;36;20144;-76
2021/09/28 01:29:53;;;;;;;18.60;6.28;;;;;;;10.58;100.00;102075.94;2599802;36;20072;-76
2021/09/28 01:32:21;;;;;;;19.33;6.22;;;;;;;10.55;100.00;102075.31;2603395;36;20038;-77
2021/09/28 01:34:49;;;;;;;20.17;6.20;;;;;;;10.55;100.00;102069.91;2599821;36;20030;-82
2021/09/28 01:37:18;;;;;;;16.83;5.88;;;;;;;10.54;100.00;102073.56;2601626;36;20035;-78
2021/09/28 01:39:48;;;;;;;15.23;6.38;;;;;;;10.52;100.00;102071.84;2606017;36;20026;-77
2021/09/28 01:42:17;;;;;;;17.42;6.78;;;;;;;10.52;100.00;102071.00;2608499;36;20543;-77
2021/09/28 01:44:45;;;;;;;16.38;6.00;;;;;;;10.53;100.00;102067.34;2610313;36;20050;-75
2021/09/28 01:47:13;;;;;;;20.55;6.65;;;;;;;10.51;100.00;102070.13;2607786;36;20031;-76
2021/09/28 01:49:41;;;;;;;17.45;6.57;;;;;;;10.49;100.00;102066.66;2605205;36;20535;-78
2021/09/28 01:52:10;;;;;;;20.48;7.05;;;;;;;10.45;100.00;102065.19;2605371;36;20061;-75
2021/09/28 01:54:38;;;;;;;18.27;7.05;;;;;;;10.42;100.00;102070.75;2604099;36;20034;-79
2021/09/28 01:57:09;;;;;;;18.73;6.78;;;;;;;10.40;100.00;102070.00;2606510;36;20155;-76
2021/09/28 01:59:38;;;;;;;16.50;7.05;;;;;;;10.36;100.00;102065.78;2604988;36;20055;-76
2021/09/28 02:02:06;;;;;;;13.75;7.00;;;;;;;10.34;100.00;102071.28;2609267;36;20034;-77
2021/09/28 02:04:34;;;;;;;16.58;6.63;;;;;;;10.35;100.00;102069.47;2608667;36;20090;-75
2021/09/28 02:07:03;;;;;;;20.73;7.35;;;;;;;10.31;100.00;102066.09;2609685;36;20610;-75
2021/09/28 02:09:31;;;;;;;22.23;6.95;;;;;;;10.27;100.00;102072.63;2610035;36;20446;-75
2021/09/28 02:11:59;;;;;;;14.90;7.15;;;;;;;10.21;100.00;102069.50;2609665;36;20038;-77
2021/09/28 02:14:30;;;;;;;17.95;7.57;;;;;;;10.27;100.00;102074.47;2605071;36;20042;-76
2021/09/28 02:17:00;;;;;;;20.33;7.70;;;;;;;10.30;100.00;102076.94;2608376;36;20129;-78
2021/09/28 02:19:28;;;;;;;17.77;7.50;;;;;;;10.27;100.00;102071.78;2608054;31;20031;-80
2021/09/28 02:21:56;;;;;;;20.13;7.78;;;;;;;10.23;100.00;102064.88;2608639;36;20102;-78
2021/09/28 02:24:24;;;;;;;27.63;8.30;;;;;;;10.23;100.00;102079.22;2609118;36;20061;-79
2021/09/28 02:26:54;;;;;;;21.45;8.38;;;;;;;10.23;100.00;102086.41;2607756;36;20055;-76
2021/09/28 02:29:22;;;;;;;19.45;8.10;;;;;;;10.21;100.00;102082.97;2605385;36;20543;-76
2021/09/28 02:31:53;;;;;;;20.17;8.53;;;;;;;10.18;100.00;102082.19;2610033;36;20055;-75
2021/09/28 02:34:21;;;;;;;24.42;8.80;;;;;;;10.17;100.00;102084.97;2602300;36;20063;-77
2021/09/28 02:36:50;;;;;;;27.35;8.15;;;;;;;10.13;100.00;102081.66;2605273;36;20022;-76
2021/09/28 02:39:18;;;;;;;23.13;8.73;;;;;;;10.12;100.00;102084.44;2602942;36;20173;-75
2021/09/28 02:41:47;;;;;;;17.40;7.73;;;;;;;10.12;100.00;102085.28;2610396;36;20038;-76
2021/09/28 02:44:16;;;;;;;20.93;8.40;;;;;;;10.09;100.00;102077.44;2607811;36;20086;-75
2021/09/28 02:46:45;;;;;;;31.30;9.45;;;;;;;10.05;100.00;102088.50;2610208;36;20023;-76
2021/09/28 02:49:16;;;;;;;19.38;9.00;;;;;;;10.05;100.00;102088.50;2608422;36;20719;-76
2021/09/28 02:54:22;;;;;;;28.75;9.50;;;;;;;9.99;100.00;102096.00;2608286;36;20034;-78
2021/09/28 02:56:51;;;;;;;20.88;8.95;;;;;;;9.98;100.00;102093.41;2611373;36;20023;-76
2021/09/28 02:59:19;;;;;;;21.15;9.27;;;;;;;10.01;100.00;102093.22;2609188;36;20046;-75
2021/09/28 03:01:47;;;;;;;26.25;9.63;;;;;;;9.99;100.00;102103.22;2607543;36;20213;-74
2021/09/28 03:04:18;;;;;;;28.55;9.68;;;;;;;9.94;100.00;102100.00;2609548;36;20031;-75
2021/09/28 03:06:46;;;;;;;28.40;10.70;;;;;;;9.90;100.00;102103.84;2609363;36;20165;-76
2021/09/28 03:09:15;;;;;;;24.60;10.18;;;;;;;9.92;100.00;102104.59;2606485;36;20034;-77
2021/09/28 03:11:43;;;;;;;23.38;10.55;;;;;;;9.88;100.00;102105.75;2608695;36;20166;-76
2021/09/28 03:14:11;;;;;;;21.83;10.00;;;;;;;9.85;100.00;102105.94;2607877;36;20755;-78
2021/09/28 03:16:39;;;;;;;25.10;9.57;;;;;;;9.83;100.00;102100.69;2607961;36;20760;-78
2021/09/28 03:19:08;;;;;;;21.88;9.95;;;;;;;9.87;100.00;102099.53;2610019;36;20057;-76
2021/09/28 03:21:39;;;;;;;21.50;9.43;;;;;;;9.89;100.00;102111.03;2607745;36;20414;-76
2021/09/28 03:24:08;;;;;;;18.40;9.30;;;;;;;9.83;100.00;102106.06;2607273;36;20035;-75
2021/09/28 03:26:36;;;;;;;28.45;10.88;;;;;;;9.76;100.00;102111.00;2606298;36;20038;-76
2021/09/28 03:29:04;;;;;;;21.75;10.65;;;;;;;9.73;100.00;102105.81;2606497;36;20121;-77
2021/09/28 03:31:33;;;;;;;24.02;10.57;;;;;;;9.70;100.00;102099.75;2606227;36;20085;-76
2021/09/28 03:34:01;;;;;;;25.13;10.23;;;;;;;9.71;100.00;102106.88;2609821;31;20026;-77
2021/09/28 03:36:30;;;;;;;29.95;12.07;;;;;;;9.67;100.00;102108.88;2609361;36;20042;-74
2021/09/28 03:39:01;;;;;;;22.60;11.65;;;;;;;9.69;100.00;102111.47;2608666;36;20061;-75
2021/09/28 03:41:29;;;;;;;26.88;12.07;;;;;;;9.74;100.00;102114.72;2609966;36;20042;-75
2021/09/28 03:43:57;;;;;;;32.67;11.65;;;;;;;9.68;100.00;102118.69;2605442;36;20042;-75
2021/09/28 03:46:26;;;;;;;29.27;11.15;;;;;;;9.69;100.00;102114.16;2608262;36;20088;-75
2021/09/28 03:48:54;;;;;;;23.08;12.00;;;;;;;9.64;100.00;102118.03;2607392;31;20026;-79
2021/09/28 03:51:22;;;;;;;24.63;10.68;;;;;;;9.64;100.00;102123.41;2608204;36;20030;-77
2021/09/28 03:53:52;;;;;;;25.95;12.43;;;;;;;9.65;100.00;102121.56;2608428;31;20463;-79
2021/09/28 03:56:25;;;;;;;30.08;12.02;;;;;;;9.62;100.00;102121.78;2608944;36;20023;-76
2021/09/28 03:58:53;;;;;;;36.53;12.68;;;;;;;9.62;100.00;102127.16;2599937;36;20042;-76
2021/09/28 04:01:21;;;;;;;29.63;13.20;;;;;;;9.64;100.00;102139.53;2601450;36;20144;-77
2021/09/28 04:03:49;;;;;;;20.83;11.55;;;;;;;9.70;100.00;102135.59;2608398;36;20089;-76
2021/09/28 04:06:17;;;;;;;30.55;12.65;;;;;;;9.65;100.00;102135.84;2606899;36;20590;-74
2021/09/28 04:08:46;;;;;;;31.60;13.07;;;;;;;9.59;100.00;102135.41;2609888;36;20034;-79
2021/09/28 04:11:15;;;;;;;25.10;12.93;;;;;;;9.54;100.00;102135.72;2607528;36;20073;-75
2021/09/28 04:13:47;;;;;;;23.60;12.30;;;;;;;9.58;100.00;102147.97;2607480;36;20034;-76
2021/09/28 04:16:16;;;;;;;28.92;13.05;;;;;;;9.53;100.00;102151.94;2599720;36;20045;-76
2021/09/28 04:18:45;;;;;;;29.25;13.18;;;;;;;9.49;100.00;102142.34;2599328;36;20830;-75
2021/09/28 04:21:14;;;;;;;;;;;;;;;9.46;100.00;102149.59;2610763;39;20416;-75
2021/09/28 04:23:42;;;;;;;26.88;13.00;;;;;;;9.45;100.00;102145.22;2606128;36;20416;-75
2021/09/28 04:26:11;;;;;;;32.40;14.30;;;;;;;9.45;100.00;102145.22;2607299;36;20447;-75
2021/09/28 04:28:39;;;;;;;31.23;12.82;;;;;;;9.44;100.00;102148.84;2605840;36;20602;-75
2021/09/28 04:31:14;;;;;;;32.20;13.48;;;;;;;9.43;100.00;102152.50;2611101;31;20491;-76
2021/09/28 04:33:42;;;;;;;28.95;14.10;;;;;;;9.45;100.00;102150.59;2608190;36;20432;-76
2021/09/28 04:36:11;;;;;;;26.80;12.85;;;;;;;9.42;100.00;102156.16;2609157;36;20520;-76
2021/09/28 04:41:10;;;;;;;27.48;13.90;;;;;;;9.40;100.00;102151.84;2604223;36;20041;-80
2021/09/28 04:43:39;;;;;;;29.50;13.77;;;;;;;9.37;100.00;102155.56;2599413;36;20065;-76
2021/09/28 04:46:10;;;;;;;27.17;13.15;;;;;;;9.33;100.00;102161.25;2604703;36;20034;-75
2021/09/28 04:48:38;;;;;;;28.38;14.00;;;;;;;9.32;100.00;102155.00;2610075;36;20034;-75
2021/09/28 04:51:06;;;;;;;27.50;13.25;;;;;;;9.34;100.00;102153.09;2603598;36;20054;-77
2021/09/28 04:53:34;;;;;;;30.55;13.05;;;;;;;9.31;100.00;102147.91;2607759;36;20057;-79
2021/09/28 04:56:03;;;;;;;28.60;13.75;;;;;;;9.35;100.00;102146.75;2602950;36;20546;-76
2021/09/28 04:58:31;;;;;;;27.90;14.18;;;;;;;9.35;100.00;102160.19;2603430;36;20173;-76
2021/09/28 05:00:59;;;;;;;33.45;13.63;;;;;;;9.37;100.00;102166.31;2604403;36;20130;-79
2021/09/28 05:03:30;;;;;;;30.55;12.35;;;;;;;9.33;100.00;102162.09;2605050;36;20038;-78
2021/09/28 05:05:58;;;;;;;24.90;12.98;;;;;;;9.35;100.00;102164.69;2604467;36;20432;-79
2021/09/28 05:08:27;;;;;;;32.45;12.80;;;;;;;9.31;100.00;102164.03;2605688;31;20588;-77
2021/09/28 05:10:55;;;;;;;30.13;12.75;;;;;;;9.32;100.00;102164.88;2606173;36;20579;-75
2021/09/28 05:13:23;;;;;;;27.30;11.60;;;;;;;9.33;100.00;102166.63;2608866;31;20508;-75
2021/09/28 05:15:51;;;;;;;28.92;12.48;;;;;;;9.28;100.00;102174.97;2608864;36;20034;-77
2021/09/28 05:18:20;;;;;;;28.88;12.45;;;;;;;9.26;100.00;102166.13;2609734;36;20078;-74
2021/09/28 05:20:51;;;;;;;28.77;12.07;;;;;;;9.29;100.00;102169.50;2607902;36;20026;-75
2021/09/28 05:23:19;;;;;;;28.35;11.93;;;;;;;9.31;100.00;102174.78;2610366;36;20431;-76
2021/09/28 05:25:47;;;;;;;33.85;12.95;;;;;;;9.24;100.00;102173.41;2604908;36;20154;-75
2021/09/28 05:28:15;;;;;;;28.70;13.20;;;;;;;9.24;100.00;102178.78;2606350;36;20098;-75
2021/09/28 05:30:44;;;;;;;27.40;12.32;;;;;;;9.22;100.00;102181.56;2607482;36;20038;-77
2021/09/28 05:33:12;;;;;;;23.63;10.95;;;;;;;9.18;100.00;102179.19;2607916;36;20423;-78
2021/09/28 05:38:27;;;;;;;28.45;12.73;;;;;;;9.20;100.00;102180.81;2037974;36;31870043;-75
2021/09/28 05:40:58;;;;;;;28.05;12.55;;;;;;;9.16;100.00;102181.06;2608025;36;20081;-75
2021/09/28 05:43:27;;;;;;;23.75;11.70;;;;;;;9.15;100.00;102184.75;2604845;36;20030;-75
2021/09/28 05:45:55;;;;;;;28.20;11.68;;;;;;;9.14;100.00;102188.38;2604571;36;20046;-76
2021/09/28 05:48:24;;;;;;;30.00;11.95;;;;;;;9.24;100.00;102178.78;2607353;31;20534;-75
2021/09/28 05:50:52;;;;;;;29.48;11.80;;;;;;;9.21;100.00;102181.66;2607896;36;20038;-80
2021/09/28 05:53:20;;;;;;;28.35;11.55;;;;;;;9.18;100.00;102173.81;2608245;36;20038;-75
2021/09/28 05:55:49;;;;;;;27.42;11.23;;;;;;;9.17;100.00;102180.13;2607397;36;20065;-78
2021/09/28 05:58:22;;;;;;;25.53;12.67;;;;;;;9.19;100.00;102178.22;2607971;31;20468;-80
2021/09/28 06:00:57;;;;;;;24.42;11.63;;;;;;;9.23;100.00;102186.00;2617324;36;20653;-76
2021/09/28 06:03:25;;;;;;;27.23;11.95;;;;;;;9.27;100.00;102192.03;2615525;36;20559;-76
2021/09/28 06:05:54;;;;;;;20.02;11.13;;;;;;;9.34;100.00;102182.63;2615719;36;20035;-75
2021/09/28 06:08:28;;;;;;;27.90;11.95;;;;;;;9.33;100.00;102193.47;2616218;36;20824;-80
2021/09/28 06:11:00;;;;;;;25.00;12.07;;;;;;;9.33;100.00;102197.03;2616585;36;20034;-75
2021/09/28 06:27:30;;;;;;;24.65;10.50;;;;;;;9.56;100.00;102194.75;2614032;54;20060;-75
2021/09/28 06:30:04;;;;;;;;;;;;;;;9.58;100.00;102199.03;2618079;31;20022;-81
2021/09/28 06:32:32;;;;;;;27.40;9.85;;;;;;;9.67;100.00;102192.22;2636077;36;19939;-75
2021/09/28 06:37:38;;;;;;;23.67;9.98;;;;;;;9.74;100.00;102195.38;2616278;46;20026;-74
2021/09/28 06:40:13;;;;;;;26.10;10.57;;;;;;;9.74;100.00;102201.63;2617934;36;20023;-75
2021/09/28 06:42:44;;;;;;;24.50;10.02;;;;;;;9.76;100.00;102207.78;2635564;36;20031;-75
2021/09/28 06:47:54;;;;;;;25.42;9.80;;;;;;;9.84;100.00;102204.59;2630458;36;20023;-78
2021/09/28 06:50:26;;;;;;;22.70;10.23;;;;;;;9.94;100.00;102210.25;2617007;36;20023;-75
2021/09/28 06:53:00;;;;;;;23.98;9.00;;;;;;;10.04;100.00;102199.75;2637884;36;20038;-76
2021/09/28 06:56:12;;;;;;;23.05;8.60;;;;;;;10.14;100.00;102209.84;2633283;36;20041;-75
2021/09/28 07:02:23;;;;;;;29.58;7.57;;;;;;;10.24;100.00;102201.16;2633452;36;20027;-75
2021/09/28 07:23:22;;;;;;;23.73;7.15;;;;;;;10.76;100.00;102219.25;2623123;36;20408;-79
2021/09/28 07:26:37;;;;;;;;;;;;;;;;;;;;;
2021/09/28 07:29:18;;;;;;;22.05;7.00;;;;;;;10.97;100.00;102226.84;2616318;36;20520;-75
2021/09/28 07:34:48;;;;;;;15.50;5.82;;;;;;;11.33;100.00;102218.00;2617020;36;20431;-73
2021/09/28 07:37:30;;;;;;;;;;;;;;;;;;;;;
2021/09/28 07:40:13;;;;;;;19.35;5.57;;;;;;;11.50;100.00;102216.81;2634606;36;20034;-75
2021/09/28 07:43:15;;;;;;;12.48;4.75;;;;;;;11.53;100.00;102215.75;2617200;36;20515;-76
2021/09/28 07:49:20;;;;;;;20.38;5.70;;;;;;;11.89;100.00;102220.31;2616933;36;20030;-75
2021/09/28 07:59:08;;;;;;;18.85;5.38;;;;;;;12.19;100.00;102226.31;2615970;47;20030;-80
2021/09/28 08:38:38;;;;;;;14.18;4.45;;;;;;;13.30;100.00;102220.63;2630778;36;20629;-76
2021/09/28 08:41:12;;;;;;;15.68;4.68;;;;;;;13.45;100.00;102226.69;2633361;36;20065;-77
2021/09/28 08:43:42;;;;;;;15.48;4.20;;;;;;;13.50;100.00;102224.50;2615427;36;20031;-76
2021/09/28 08:46:20;;;;;;;11.20;4.43;;;;;;;13.52;100.00;102221.66;2633317;36;20090;-74
2021/09/28 08:48:59;;;;;;;10.88;3.75;;;;;;;13.59;100.00;102217.47;2615176;36;20030;-77
2021/09/28 08:51:36;;;;;;;12.70;4.30;;;;;;;13.62;100.00;102218.09;2615300;36;20037;-76
2021/09/28 08:54:39;;;;;;;14.07;4.03;;;;;;;13.62;100.00;102209.97;2615586;36;20053;-75
2021/09/28 08:57:21;;;;;;;9.13;3.58;;;;;;;13.65;100.00;102215.16;2632997;36;20022;-80
2021/09/28 08:59:59;;;;;;;9.63;3.80;;;;;;;13.65;100.00;102220.56;2615616;36;20030;-76
2021/09/28 09:02:42;;;;;;;9.25;3.90;;;;;;;13.87;100.00;102212.53;2644908;36;20031;-78
2021/09/28 09:05:22;;;;;;;19.27;4.03;;;;;;;14.06;100.00;102223.59;2615755;36;20126;-77
2021/09/28 09:08:01;;;;;;;14.00;3.80;;;;;;;14.32;100.00;102217.88;2615733;31;20551;-81
2021/09/28 09:10:43;;;;;;;12.32;3.90;;;;;;;14.59;100.00;102212.00;2616437;36;20535;-82
2021/09/28 09:13:13;;;;;;;14.35;3.55;;;;;;;14.31;100.00;102216.16;2616611;36;20023;-76
2021/09/28 09:15:50;;;;;;;14.02;4.30;;;;;;;14.29;100.00;102212.72;2633889;36;20022;-76
2021/09/28 09:18:18;;;;;;;14.25;3.85;;;;;;;14.46;100.00;102216.75;2630707;36;20448;-76
2021/09/28 09:20:49;;;;;;;12.90;3.90;;;;;;;14.66;100.00;102212.38;2617574;36;20034;-78
2021/09/28 09:23:25;;;;;;;10.02;3.25;;;;;;;14.86;100.00;102219.66;2616976;36;20031;-76
2021/09/28 09:26:18;;;;;;;15.73;3.97;;;;;;;14.88;100.00;102214.13;2617453;36;20037;-75
2021/09/28 09:28:54;;;;;;;12.38;3.33;;;;;;;14.83;100.00;102210.94;2618067;36;20030;-76
2021/09/28 09:31:36;;;;;;;15.15;3.72;;;;;;;14.92;100.00;102212.00;2617201;36;20069;-77
2021/09/28 09:34:14;;;;;;;10.52;3.20;;;;;;;14.85;100.00;102200.81;2635408;36;20034;-75
2021/09/28 09:36:54;;;;;;;8.52;3.08;;;;;;;14.93;100.00;102198.31;2613023;36;20594;-80
2021/09/28 09:39:25;;;;;;;9.18;3.28;;;;;;;15.11;100.00;102200.44;2613160;36;20041;-76
2021/09/28 09:42:17;;;;;;;12.52;3.38;;;;;;;15.11;100.00;102198.59;2617012;36;20594;-82
2021/09/28 09:44:53;;;;;;;11.93;3.17;;;;;;;14.92;100.00;102198.47;2617650;36;20527;-76
2021/09/28 09:57:08;;;;;;;11.48;3.00;;;;;;;15.61;100.00;102183.44;2632224;36;20026;-76
2021/09/28 10:08:35;;;;;;;13.65;3.40;;;;;;;15.87;100.00;102181.09;2616097;36;20069;-80
2021/09/28 10:11:04;;;;;;;10.48;2.90;;;;;;;16.01;100.00;102172.56;2615701;36;20037;-77
2021/09/28 10:13:55;;;;;;;10.68;3.00;;;;;;;16.06;100.00;102173.03;2615990;36;20039;-76
2021/09/28 10:16:44;;;;;;;11.07;2.88;;;;;;;16.22;100.00;102171.59;2614782;36;20046;-77
2021/09/28 10:19:44;;;;;;;9.40;2.70;;;;;;;16.29;100.00;102165.44;2614903;36;20034;-77
2021/09/28 10:23:02;;;;;;;10.40;2.55;;;;;;;16.59;100.00;102173.59;2616339;36;20129;-76
2021/09/28 10:32:38;;;;;;;12.30;2.50;;;;;;;16.74;100.00;102158.59;2632405;36;20035;-76
2021/09/28 10:47:52;;;;;;;9.73;2.20;;;;;;;17.17;100.00;102142.78;2610570;54;20162;-75
2021/09/28 10:50:26;;;;;;;13.57;2.85;;;;;;;16.99;100.00;102146.25;2605082;36;20042;-77
2021/09/28 10:53:00;;;;;;;13.10;2.50;;;;;;;17.37;100.00;102145.44;2611122;54;20026;-79
2021/09/28 11:02:42;;;;;;;7.63;1.98;;;;;;;16.92;100.00;102127.97;2614703;36;20027;-78
2021/09/28 11:05:42;;;;;;;12.68;2.30;;;;;;;17.19;100.00;102129.88;2614125;36;20142;-79
2021/09/28 11:11:47;;;;;;;10.40;2.28;;;;;;;17.52;100.00;102119.44;2615439;36;20034;-78
2021/09/28 11:14:16;;;;;;;10.70;2.15;;;;;;;17.23;100.00;102114.13;2612809;36;20061;-77
2021/09/28 11:16:48;;;;;;;9.83;2.77;;;;;;;17.25;100.00;102112.94;2615206;36;20188;-78
2021/09/28 11:19:16;;;;;;;10.27;2.30;;;;;;;17.35;100.00;102107.47;2615734;36;20306;-79
2021/09/28 11:21:55;;;;;;;8.70;1.65;;;;;;;17.01;100.00;102113.47;2615494;36;20447;-79
2021/09/28 11:24:30;;;;;;;10.85;1.98;;;;;;;17.00;100.00;102103.59;2615776;36;20129;-80
2021/09/28 11:27:43;;;;;;;14.13;2.35;;;;;;;17.08;100.00;102100.16;2630678;36;20023;-78
2021/09/28 11:31:20;;;;;;;9.27;2.10;;;;;;;17.14;100.00;102110.44;2651875;36;20590;-78
2021/09/28 11:34:45;;;;;;;12.88;2.33;;;;;;;17.59;100.00;102108.78;2633802;36;20473;-79
2021/09/28 11:37:45;;;;;;;9.75;1.80;;;;;;;17.23;100.00;102104.09;2632822;36;20031;-79
2021/09/28 11:40:56;;;;;;;11.57;2.53;;;;;;;17.03;100.00;102103.28;2632070;36;20129;-78
2021/09/28 11:43:55;;;;;;;10.52;2.40;;;;;;;17.52;100.00;102098.50;2615036;36;20038;-78
2021/09/28 11:46:41;;;;;;;10.32;2.17;;;;;;;17.92;100.00;102092.84;2633005;36;20034;-78
2021/09/28 11:49:55;;;;;;;9.63;1.92;;;;;;;17.94;100.00;102088.09;2615822;36;20039;-77
2021/09/28 12:20:56;;;;;;;9.82;2.17;;;;;;;17.79;100.00;102052.34;2632800;36;20030;-77
2021/09/28 12:23:25;;;;;;;7.60;2.25;;;;;;;18.17;100.00;102053.94;2630805;36;20039;-77
2021/09/28 12:26:25;;;;;;;10.77;2.85;;;;;;;18.45;100.00;102048.38;2614659;36;20033;-76
2021/09/28 12:29:22;;;;;;;11.77;2.33;;;;;;;18.87;100.00;102034.03;2613890;36;20484;-77
2021/09/28 12:31:54;;;;;;;10.38;2.33;;;;;;;18.89;100.00;102036.59;2631886;36;20423;-79
2021/09/28 12:34:32;;;;;;;11.15;1.90;;;;;;;18.62;100.00;102034.84;2651559;36;20547;-77
2021/09/28 12:37:44;;;;;;;8.82;1.85;;;;;;;18.89;100.00;102031.13;2633408;36;20053;-77
2021/09/28 12:40:29;;;;;;;6.70;2.03;;;;;;;19.11;100.00;102035.16;2633929;36;20042;-77
2021/09/28 12:43:23;;;;;;;9.13;1.80;;;;;;;18.81;100.00;102029.16;2632984;36;20055;-78
2021/09/28 12:49:43;;;;;;;9.25;1.90;;;;;;;18.77;100.00;102016.00;2650420;36;20145;-78
2021/09/28 12:52:37;;;;;;;;;;;;;;;;;;;;;
2021/09/28 12:55:09;;;;;;;9.57;1.80;;;;;;;18.76;100.00;102025.19;2633804;36;20050;-75
2021/09/28 12:57:56;;;;;;;7.80;2.13;;;;;;;18.37;100.00;102031.94;2614756;36;20586;-78
2021/09/28 13:00:29;;;;;;;7.55;2.15;;;;;;;18.09;100.00;102032.06;2615417;31;20046;-76
2021/09/28 13:03:16;;;;;;;15.90;2.03;;;;;;;18.07;100.00;102028.63;2614429;36;20030;-75
2021/09/28 13:05:58;;;;;;;13.25;2.00;;;;;;;18.06;100.00;102023.34;2615537;36;20031;-76
2021/09/28 13:08:31;;;;;;;8.60;2.58;;;;;;;18.00;100.00;102016.66;2633958;36;20031;-76
2021/09/28 13:11:00;;;;;;;12.75;2.47;;;;;;;18.09;100.00;102029.31;2634132;36;20073;-78
2021/09/28 13:16:32;;;;;;;7.15;1.48;;;;;;;17.59;100.00;102016.22;2631691;36;20041;-75
2021/09/28 13:19:00;;;;;;;6.15;1.70;;;;;;;17.85;100.00;102017.16;2614028;36;20065;-75
2021/09/28 13:21:29;;;;;;;7.72;1.95;;;;;;;18.21;100.00;102009.00;2615355;36;20038;-76
2021/09/28 13:24:00;;;;;;;6.95;1.70;;;;;;;18.07;100.00;102004.13;2616446;36;20038;-75
2021/09/28 13:26:31;;;;;;;7.30;1.63;;;;;;;18.08;100.00;102008.56;2615449;36;20035;-75
2021/09/28 13:29:00;;;;;;;6.93;1.80;;;;;;;18.35;100.00;102012.16;2616316;36;20038;-74
2021/09/28 13:31:34;;;;;;;11.57;2.50;;;;;;;18.76;100.00;101996.06;2614932;36;20030;-74
2021/09/28 13:34:03;;;;;;;8.32;2.75;;;;;;;19.07;100.00;102001.88;2616078;36;20295;-74
2021/09/28 13:36:31;;;;;;;6.50;2.93;;;;;;;18.84;100.00;101993.38;2615392;36;20534;-75
2021/09/28 13:41:38;;;;;;;13.52;2.90;;;;;;;19.39;100.00;101993.94;2612842;54;20133;-74
2021/09/28 13:44:06;;;;;;;11.57;2.13;;;;;;;19.20;100.00;101985.03;2633944;36;20041;-74
2021/09/28 13:46:39;;;;;;;9.07;2.38;;;;;;;18.70;100.00;101978.47;2613949;36;20042;-74
2021/09/28 13:49:07;;;;;;;10.15;2.10;;;;;;;18.49;100.00;101987.06;2614758;36;20027;-76
2021/09/28 13:51:35;;;;;;;5.03;1.75;;;;;;;18.45;100.00;101982.94;2615693;36;20126;-76
2021/09/28 13:54:04;;;;;;;9.97;2.20;;;;;;;18.30;100.00;101981.78;2615370;36;21174;-75
2021/09/28 13:56:32;;;;;;;6.20;1.55;;;;;;;18.65;100.00;101974.53;2614823;36;20303;-75
2021/09/28 13:59:03;;;;;;;10.57;2.47;;;;;;;18.62;100.00;101963.94;2614812;36;20679;-75
2021/09/28 14:01:32;;;;;;;6.13;1.67;;;;;;;18.99;100.00;101965.50;2615061;36;20035;-76
2021/09/28 14:04:01;;;;;;;6.43;1.55;;;;;;;19.24;100.00;101966.44;2615598;36;20046;-79
2021/09/28 14:06:29;;;;;;;9.50;1.60;;;;;;;19.10;100.00;101957.03;2615778;31;20167;-74
2021/09/28 14:08:57;;;;;;;9.57;2.10;;;;;;;19.03;100.00;101964.16;2614535;36;20058;-75
2021/09/28 14:11:25;;;;;;;8.70;1.80;;;;;;;19.15;100.00;101953.78;2614985;36;20041;-74
2021/09/28 14:14:08;;;;;;;4.75;1.50;;;;;;;19.16;100.00;101961.81;2613505;36;20555;-75
2021/09/28 14:16:40;;;;;;;7.50;1.63;;;;;;;19.21;100.00;101955.84;2616112;36;20027;-75
2021/09/28 14:19:08;;;;;;;8.05;1.52;;;;;;;18.83;100.00;101947.16;2615660;36;20060;-75
2021/09/28 14:21:40;;;;;;;8.48;2.00;;;;;;;18.55;100.00;101945.50;2614982;36;20045;-77
2021/09/28 14:24:08;;;;;;;7.72;2.17;;;;;;;18.68;100.00;101955.09;2616678;36;20581;-75
2021/09/28 14:26:37;;;;;;;7.45;2.17;;;;;;;18.55;100.00;101945.50;2616602;36;20026;-79
2021/09/28 14:29:08;;;;;;;6.55;1.80;;;;;;;18.61;100.00;101952.19;2617004;36;20042;-75
2021/09/28 14:31:41;;;;;;;10.23;2.08;;;;;;;18.72;100.00;101948.31;2616542;36;20034;-76
2021/09/28 14:34:09;;;;;;;6.68;1.60;;;;;;;18.81;100.00;101941.88;2616785;36;20031;-75
2021/09/28 14:36:38;;;;;;;4.68;1.30;;;;;;;18.73;100.00;101941.84;2617350;36;20475;-76
2021/09/28 14:39:06;;;;;;;6.43;2.08;;;;;;;18.70;100.00;101939.47;2616727;36;20042;-77
2021/09/28 14:41:35;;;;;;;9.35;1.73;;;;;;;18.34;100.00;101939.59;2616558;36;20034;-74
2021/09/28 14:44:04;;;;;;;7.03;1.85;;;;;;;18.02;100.00;101935.63;2617596;36;20427;-74
2021/09/28 14:46:36;;;;;;;5.60;1.60;;;;;;;17.96;100.00;101938.97;2616897;36;20459;-74
2021/09/28 14:49:05;;;;;;;7.63;1.92;;;;;;;17.96;100.00;101928.09;2616947;36;20057;-78
2021/09/28 14:51:33;;;;;;;5.63;1.17;;;;;;;18.24;100.00;101928.81;2616830;36;20619;-75
2021/09/28 14:54:01;;;;;;;6.53;1.47;;;;;;;18.63;100.00;101922.03;2617145;36;20031;-74